createdAt,value
2019-05-23T00:00:32.910Z,99.99
2019-05-23T00:01:32.872Z,99.99
2019-05-23T00:02:32.841Z,99.99
2019-05-23T00:03:32.807Z,99.99
2019-05-23T00:04:32.760Z,99.99
2019-05-23T00:05:32.728Z,99.99
2019-05-23T00:06:32.681Z,99.99
2019-05-23T00:07:32.656Z,99.99
2019-05-23T00:08:32.608Z,99.99
2019-05-23T00:09:32.571Z,99.99
2019-05-23T00:10:32.563Z,99.99
2019-05-23T00:11:32.500Z,99.99
2019-05-23T00:12:32.458Z,99.99
2019-05-23T00:13:32.418Z,99.99
2019-05-23T00:14:32.407Z,99.99
2019-05-23T00:15:32.349Z,99.99
2019-05-23T00:16:32.309Z,99.99
2019-05-23T00:17:32.276Z,99.99
2019-05-23T00:18:32.230Z,99.99
2019-05-23T00:19:32.195Z,99.99
2019-05-23T00:20:32.162Z,99.99
2019-05-23T00:21:32.124Z,99.99
2019-05-23T00:22:32.086Z,99.99
2019-05-23T00:23:32.048Z,99.99
2019-05-23T00:24:32.009Z,99.99
2019-05-23T00:25:31.972Z,99.99
2019-05-23T00:26:31.930Z,99.99
2019-05-23T00:27:31.894Z,99.99
2019-05-23T00:28:31.862Z,99.99
2019-05-23T00:29:31.822Z,99.99
2019-05-23T00:30:31.779Z,99.99
2019-05-23T00:31:31.747Z,99.99
2019-05-23T00:32:31.714Z,99.99
2019-05-23T00:33:31.667Z,99.99
2019-05-23T00:34:31.635Z,99.99
2019-05-23T00:35:31.598Z,99.99
2019-05-23T00:36:31.558Z,99.99
2019-05-23T00:37:31.523Z,99.99
2019-05-23T00:38:31.597Z,99.99
2019-05-23T00:39:31.468Z,99.99
2019-05-23T00:40:31.494Z,99.99
2019-05-23T00:41:31.368Z,99.99
2019-05-23T00:42:31.338Z,99.99
2019-05-23T00:43:31.297Z,99.99
2019-05-23T00:44:31.300Z,99.99
2019-05-23T00:45:31.218Z,99.99
2019-05-23T00:46:31.187Z,99.99
2019-05-23T00:47:31.148Z,99.99
2019-05-23T00:48:31.114Z,99.99
2019-05-23T00:49:31.077Z,99.99
2019-05-23T00:50:31.039Z,99.99
2019-05-23T00:51:30.996Z,99.99
2019-05-23T00:52:30.962Z,99.99
2019-05-23T00:53:30.917Z,99.99
2019-05-23T00:54:30.884Z,99.99
2019-05-23T00:55:30.851Z,99.99
2019-05-23T00:56:30.807Z,99.99
2019-05-23T00:57:30.777Z,99.99
2019-05-23T00:58:30.736Z,99.99
2019-05-23T00:59:30.698Z,99.99
2019-05-23T01:00:30.660Z,99.99
2019-05-23T01:01:30.620Z,99.99
2019-05-23T01:02:30.584Z,99.99
2019-05-23T01:03:30.547Z,99.99
2019-05-23T01:04:30.555Z,99.99
2019-05-23T01:05:30.467Z,99.99
2019-05-23T01:06:30.440Z,99.99
2019-05-23T01:07:30.450Z,99.99
2019-05-23T01:08:30.361Z,99.99
2019-05-23T01:09:30.343Z,99.99
2019-05-23T01:10:30.279Z,99.99
2019-05-23T01:11:30.245Z,99.99
2019-05-23T01:12:30.293Z,99.99
2019-05-23T01:13:30.222Z,99.99
2019-05-23T01:14:30.135Z,99.99
2019-05-23T01:15:30.124Z,99.99
2019-05-23T01:16:30.069Z,99.99
2019-05-23T01:17:30.038Z,99.99
2019-05-23T01:18:30.059Z,99.99
2019-05-23T01:19:29.953Z,99.99
2019-05-23T01:20:29.905Z,99.99
2019-05-23T01:21:29.873Z,99.99
2019-05-23T01:22:29.829Z,99.99
2019-05-23T01:23:29.791Z,99.99
2019-05-23T01:24:29.756Z,99.99
2019-05-23T01:25:29.724Z,99.99
2019-05-23T01:26:29.710Z,99.99
2019-05-23T01:27:29.643Z,99.99
2019-05-23T01:28:29.609Z,99.99
2019-05-23T01:29:37.313Z,99.99
2019-05-23T01:30:29.588Z,99.99
2019-05-23T01:31:29.493Z,99.99
2019-05-23T01:32:29.460Z,99.99
2019-05-23T01:33:29.415Z,99.99
2019-05-23T01:34:29.385Z,99.99
2019-05-23T01:35:29.337Z,99.99
2019-05-23T01:36:29.313Z,99.99
2019-05-23T01:37:29.264Z,99.99
2019-05-23T01:38:29.229Z,99.99
2019-05-23T01:39:29.218Z,99.99
2019-05-23T01:40:29.156Z,99.99
2019-05-23T01:41:29.128Z,99.99
2019-05-23T01:42:29.099Z,99.99
2019-05-23T01:43:29.045Z,99.99
2019-05-23T01:44:29.031Z,99.99
2019-05-23T01:45:28.960Z,99.99
2019-05-23T01:46:28.925Z,99.99
2019-05-23T01:47:28.885Z,99.99
2019-05-23T01:48:28.866Z,99.99
2019-05-23T01:49:28.839Z,99.99
2019-05-23T01:50:28.794Z,99.99
2019-05-23T01:51:28.747Z,99.99
2019-05-23T01:52:28.705Z,99.99
2019-05-23T01:53:28.670Z,99.99
2019-05-23T01:54:28.626Z,99.99
2019-05-23T01:55:28.600Z,99.99
2019-05-23T01:56:28.542Z,99.99
2019-05-23T01:57:28.505Z,99.99
2019-05-23T01:58:28.505Z,99.99
2019-05-23T01:59:28.438Z,99.99
2019-05-23T02:00:28.428Z,99.99
2019-05-23T02:01:28.380Z,99.99
2019-05-23T02:02:28.319Z,99.99
2019-05-23T02:03:28.283Z,99.99
2019-05-23T02:04:28.304Z,99.99
2019-05-23T02:05:36.861Z,99.99
2019-05-23T02:07:32.603Z,99.99
2019-05-23T02:08:32.540Z,99.99
2019-05-23T02:09:32.521Z,99.99
2019-05-23T02:10:32.469Z,99.99
2019-05-23T02:11:32.429Z,99.99
2019-05-23T02:12:32.388Z,99.99
2019-05-23T02:13:32.348Z,99.99
2019-05-23T02:14:32.310Z,99.99
2019-05-23T02:15:32.277Z,99.99
2019-05-23T02:16:32.239Z,99.99
2019-05-23T02:17:32.229Z,99.99
2019-05-23T02:18:32.166Z,99.99
2019-05-23T02:19:32.126Z,99.99
2019-05-23T02:20:32.085Z,99.99
2019-05-23T02:21:32.045Z,99.99
2019-05-23T02:22:32.011Z,99.99
2019-05-23T02:23:31.972Z,99.99
2019-05-23T02:24:31.938Z,97.37
2019-05-23T02:25:31.898Z,99.95
2019-05-23T02:26:31.864Z,97.56
2019-05-23T02:27:31.828Z,97.42
2019-05-23T02:28:31.791Z,98.28
2019-05-23T02:29:31.779Z,96.89
2019-05-23T02:30:34.707Z,91.50
2019-05-23T02:31:31.672Z,96.94
2019-05-23T02:32:31.633Z,92.79
2019-05-23T02:33:31.593Z,98.08
2019-05-23T02:34:31.556Z,97.47
2019-05-23T02:35:31.527Z,89.59
2019-05-23T02:36:31.483Z,88.73
2019-05-23T02:37:31.446Z,86.82
2019-05-23T02:38:31.410Z,97.66
2019-05-23T02:39:31.370Z,99.99
2019-05-23T02:40:31.332Z,99.99
2019-05-23T02:41:31.289Z,99.99
2019-05-23T02:42:31.258Z,99.99
2019-05-23T02:43:31.217Z,99.99
2019-05-23T02:44:31.178Z,99.99
2019-05-23T02:45:31.148Z,99.99
2019-05-23T02:46:31.134Z,93.31
2019-05-23T02:47:31.065Z,92.26
2019-05-23T02:48:31.107Z,95.94
2019-05-23T02:49:30.996Z,91.69
2019-05-23T02:50:30.955Z,93.74
2019-05-23T02:51:30.914Z,96.89
2019-05-23T02:52:30.877Z,98.80
2019-05-23T02:53:30.835Z,93.79
2019-05-23T02:54:30.817Z,96.94
2019-05-23T02:55:30.760Z,95.12
2019-05-23T02:56:30.725Z,99.99
2019-05-23T02:57:30.689Z,99.18
2019-05-23T02:58:30.648Z,95.79
2019-05-23T02:59:30.611Z,98.27
2019-05-23T03:00:30.576Z,96.66
2019-05-23T03:01:30.576Z,99.99
2019-05-23T03:02:30.527Z,96.27
2019-05-23T03:03:30.460Z,94.12
2019-05-23T03:04:30.422Z,92.93
2019-05-23T03:05:30.378Z,91.50
2019-05-23T03:06:30.341Z,89.50
2019-05-23T03:07:30.307Z,88.92
2019-05-23T03:08:30.278Z,96.13
2019-05-23T03:09:30.233Z,97.66
2019-05-23T03:10:30.196Z,95.75
2019-05-23T03:11:30.153Z,97.85
2019-05-23T03:12:30.122Z,98.99
2019-05-23T03:13:30.093Z,98.80
2019-05-23T03:14:30.041Z,99.66
2019-05-23T03:15:30.006Z,98.61
2019-05-23T03:16:29.961Z,98.71
2019-05-23T03:17:29.927Z,99.47
2019-05-23T03:18:34.046Z,99.99
2019-05-23T03:19:29.847Z,99.99
2019-05-23T03:20:29.811Z,99.99
2019-05-23T03:37:04.457Z,67.14
2019-05-23T03:38:04.387Z,67.23
2019-05-23T03:39:04.340Z,59.70
2019-05-23T03:40:04.300Z,61.13
2019-05-23T03:41:04.254Z,56.65
2019-05-23T03:42:04.232Z,61.80
2019-05-23T03:43:04.170Z,63.13
2019-05-23T03:44:04.126Z,56.17
2019-05-23T03:45:04.090Z,63.51
2019-05-23T03:46:04.052Z,63.51
2019-05-23T03:47:04.010Z,67.71
2019-05-23T03:48:03.965Z,62.37
2019-05-23T03:49:03.928Z,66.28
2019-05-23T03:50:03.890Z,66.56
2019-05-23T03:51:03.861Z,65.89
2019-05-23T03:52:03.819Z,61.19
2019-05-23T03:53:03.771Z,62.27
2019-05-23T03:54:03.732Z,61.89
2019-05-23T03:55:03.691Z,62.08
2019-05-23T03:56:03.655Z,61.32
2019-05-23T03:57:03.649Z,61.80
2019-05-23T03:58:03.575Z,61.41
2019-05-23T03:59:03.533Z,61.41
2019-05-23T04:00:03.493Z,61.32
2019-05-23T04:01:03.456Z,60.27
2019-05-23T04:02:03.416Z,58.84
2019-05-23T04:03:03.419Z,54.80
2019-05-23T04:04:03.335Z,54.36
2019-05-23T04:05:03.300Z,58.36
2019-05-23T04:06:03.263Z,60.27
2019-05-23T04:07:03.226Z,61.80
2019-05-23T04:08:03.183Z,63.51
2019-05-23T04:09:03.146Z,64.28
2019-05-23T04:10:03.120Z,66.38
2019-05-23T04:11:03.123Z,66.28
2019-05-23T04:12:03.028Z,65.42
2019-05-23T04:13:02.990Z,65.33
2019-05-23T04:14:02.951Z,64.75
2019-05-23T04:15:02.923Z,64.28
2019-05-23T04:16:02.874Z,63.51
2019-05-23T04:17:02.835Z,62.65
2019-05-23T04:18:02.792Z,61.80
2019-05-23T04:19:02.764Z,62.56
2019-05-23T04:20:02.720Z,63.51
2019-05-23T04:21:02.680Z,63.80
2019-05-23T04:22:02.640Z,63.92
2019-05-23T04:23:02.604Z,64.47
2019-05-23T04:24:02.561Z,64.59
2019-05-23T04:25:02.780Z,65.26
2019-05-23T04:26:02.504Z,65.45
2019-05-23T04:27:02.449Z,65.64
2019-05-23T04:28:02.411Z,67.17
2019-05-23T04:29:02.368Z,67.36
2019-05-23T04:30:02.334Z,68.60
2019-05-23T04:31:02.290Z,70.61
2019-05-23T04:32:07.746Z,71.84
2019-05-23T04:33:02.223Z,73.08
2019-05-23T04:34:02.178Z,74.13
2019-05-23T04:35:02.148Z,75.03
2019-05-23T04:36:02.096Z,76.65
2019-05-23T04:37:02.062Z,81.24
2019-05-23T04:38:02.071Z,82.76
2019-05-23T04:39:02.002Z,84.39
2019-05-23T04:40:01.950Z,85.91
2019-05-23T04:41:01.904Z,86.87
2019-05-23T04:42:01.871Z,86.87
2019-05-23T04:43:01.829Z,86.87
2019-05-23T04:44:01.791Z,88.59
2019-05-23T04:45:01.758Z,88.06
2019-05-23T04:46:01.718Z,88.87
2019-05-23T04:47:01.684Z,88.92
2019-05-23T04:48:01.658Z,88.87
2019-05-23T04:49:01.598Z,88.34
2019-05-23T04:50:01.562Z,88.34
2019-05-23T04:51:01.525Z,88.54
2019-05-23T04:52:01.492Z,88.63
2019-05-23T04:53:01.447Z,88.06
2019-05-23T04:54:01.409Z,90.25
2019-05-23T04:55:01.441Z,89.49
2019-05-23T04:56:01.389Z,89.78
2019-05-23T04:57:01.299Z,90.45
2019-05-23T04:58:04.192Z,90.54
2019-05-23T04:59:01.223Z,90.64
2019-05-23T05:00:01.186Z,91.11
2019-05-23T05:01:01.143Z,91.97
2019-05-23T05:02:01.204Z,93.02
2019-05-23T05:03:01.066Z,91.78
2019-05-23T05:04:01.028Z,92.83
2019-05-23T05:05:00.995Z,88.06
2019-05-23T05:06:00.954Z,84.20
2019-05-23T05:07:00.918Z,85.05
2019-05-23T05:08:00.875Z,83.43
2019-05-23T05:09:00.843Z,84.96
2019-05-23T05:10:00.803Z,84.39
2019-05-23T05:11:00.762Z,93.16
2019-05-23T05:12:00.731Z,93.65
2019-05-23T05:13:00.684Z,93.84
2019-05-23T05:14:00.648Z,93.65
2019-05-23T05:15:00.610Z,93.45
2019-05-23T05:16:00.572Z,94.46
2019-05-23T05:17:00.549Z,94.07
2019-05-23T05:18:00.498Z,94.74
2019-05-23T05:19:00.460Z,95.51
2019-05-23T05:20:00.425Z,96.08
2019-05-23T05:21:00.389Z,96.37
2019-05-23T05:22:00.345Z,95.98
2019-05-23T05:23:00.315Z,95.22
2019-05-23T05:24:00.275Z,96.47
2019-05-23T05:25:00.269Z,91.64
2019-05-23T05:26:00.192Z,94.84
2019-05-23T05:27:00.161Z,93.60
2019-05-23T05:28:00.119Z,95.70
2019-05-23T05:29:00.087Z,96.37
2019-05-23T05:30:00.045Z,94.84
2019-05-23T05:31:00.009Z,91.97
2019-05-23T05:32:03.385Z,90.53
2019-05-23T05:32:59.929Z,90.78
2019-05-23T05:33:59.895Z,93.79
2019-05-23T05:34:59.858Z,94.70
2019-05-23T05:35:59.818Z,95.75
2019-05-23T05:36:59.787Z,89.01
2019-05-23T05:37:59.760Z,94.41
2019-05-23T05:38:59.709Z,95.84
2019-05-23T05:39:59.671Z,94.50
2019-05-23T05:40:59.641Z,95.94
2019-05-23T05:41:59.600Z,95.75
2019-05-23T05:42:59.565Z,97.80
2019-05-23T05:43:59.529Z,99.99
2019-05-23T05:44:59.484Z,96.56
2019-05-23T05:45:59.448Z,96.47
2019-05-23T05:46:59.413Z,98.57
2019-05-23T05:47:59.375Z,99.81
2019-05-23T05:48:59.346Z,97.71
2019-05-23T05:49:59.303Z,98.57
2019-05-23T05:50:59.267Z,97.33
2019-05-23T05:51:59.234Z,98.66
2019-05-23T05:52:59.192Z,98.81
2019-05-23T05:53:59.159Z,98.33
2019-05-23T05:55:00.887Z,99.29
2019-05-23T05:55:59.087Z,97.09
2019-05-23T05:56:59.042Z,94.79
2019-05-23T05:57:59.010Z,99.99
2019-05-23T05:58:58.971Z,99.99
2019-05-23T05:59:58.934Z,99.99
2019-05-23T06:00:58.933Z,99.99
2019-05-23T06:01:58.864Z,99.91
2019-05-23T06:03:04.131Z,99.99
2019-05-23T06:03:58.793Z,99.99
2019-05-23T06:04:58.752Z,99.99
2019-05-23T06:05:58.725Z,99.99
2019-05-23T06:06:58.683Z,99.99
2019-05-23T06:07:58.643Z,99.99
2019-05-23T06:08:58.657Z,99.99
2019-05-23T06:09:58.575Z,99.99
2019-05-23T06:10:58.538Z,99.99
2019-05-23T06:11:58.500Z,98.86
2019-05-23T06:12:58.467Z,99.99
2019-05-23T06:13:58.430Z,99.99
2019-05-23T06:14:58.396Z,99.99
2019-05-23T06:15:58.362Z,99.99
2019-05-23T06:16:58.327Z,99.99
2019-05-23T06:17:58.299Z,99.99
2019-05-23T06:18:58.251Z,99.99
2019-05-23T06:19:58.213Z,99.99
2019-05-23T06:20:58.190Z,99.99
2019-05-23T06:21:58.145Z,99.99
2019-05-23T06:22:58.135Z,99.99
2019-05-23T06:23:58.114Z,99.99
2019-05-23T06:24:58.311Z,99.99
2019-05-23T06:25:58.002Z,99.99
2019-05-23T06:26:57.969Z,99.99
2019-05-23T06:27:57.941Z,99.99
2019-05-23T06:28:57.895Z,99.99
2019-05-23T06:29:57.859Z,99.99
2019-05-23T06:30:57.825Z,99.99
2019-05-23T06:31:57.788Z,99.99
2019-05-23T06:32:57.761Z,99.99
2019-05-23T06:33:57.721Z,99.99
2019-05-23T06:34:57.691Z,99.99
2019-05-23T06:35:57.653Z,99.99
2019-05-23T06:36:57.612Z,99.99
2019-05-23T06:37:57.588Z,99.99
2019-05-23T06:38:57.544Z,99.99
2019-05-23T06:39:57.514Z,99.99
2019-05-23T06:40:57.481Z,99.99
2019-05-23T06:41:57.443Z,99.99
2019-05-23T06:42:57.407Z,99.99
2019-05-23T06:43:57.367Z,99.99
2019-05-23T06:44:57.343Z,99.99
2019-05-23T06:45:57.302Z,99.99
2019-05-23T06:46:57.270Z,99.99
2019-05-23T06:47:57.237Z,99.99
2019-05-23T06:48:57.195Z,99.99
2019-05-23T06:49:57.170Z,99.99
2019-05-23T06:50:57.128Z,99.99
2019-05-23T06:51:57.098Z,99.99
2019-05-23T06:52:57.064Z,99.99
2019-05-23T06:53:57.028Z,99.99
2019-05-23T06:54:59.697Z,99.99
2019-05-23T06:55:56.974Z,99.99
2019-05-23T06:56:56.923Z,99.99
2019-05-23T06:57:56.887Z,99.99
2019-05-23T06:58:56.856Z,99.99
2019-05-23T06:59:56.825Z,99.99
2019-05-23T07:00:56.787Z,99.99
2019-05-23T07:01:56.759Z,99.99
2019-05-23T07:02:56.719Z,99.49
2019-05-23T07:03:56.721Z,99.83
2019-05-23T07:04:56.652Z,99.99
2019-05-23T07:05:56.617Z,99.99
2019-05-23T07:06:56.583Z,99.40
2019-05-23T07:07:56.552Z,99.99
2019-05-23T07:08:56.510Z,99.99
2019-05-23T07:09:56.479Z,98.82
2019-05-23T07:10:56.446Z,98.29
2019-05-23T07:11:56.463Z,96.94
2019-05-23T07:12:56.380Z,99.25
2019-05-23T07:13:56.346Z,98.19
2019-05-23T07:14:56.307Z,99.54
2019-05-23T07:15:56.275Z,99.63
2019-05-23T07:16:56.252Z,98.48
2019-05-23T07:17:56.212Z,98.10
2019-05-23T07:18:56.173Z,96.85
2019-05-23T07:19:56.165Z,98.68
2019-05-23T07:20:56.107Z,99.99
2019-05-23T07:21:56.071Z,99.99
2019-05-23T07:22:56.039Z,99.30
2019-05-23T07:23:56.002Z,98.24
2019-05-23T07:24:58.540Z,96.32
2019-05-23T07:25:55.941Z,97.28
2019-05-23T07:26:55.907Z,95.17
2019-05-23T07:27:55.872Z,90.17
2019-05-23T07:28:55.834Z,94.88
2019-05-23T07:29:55.802Z,96.22
2019-05-23T07:30:55.770Z,96.03
2019-05-23T07:31:55.737Z,95.84
2019-05-23T07:32:55.708Z,95.75
2019-05-23T07:34:01.571Z,95.26
2019-05-23T07:34:55.634Z,95.65
2019-05-23T07:35:55.613Z,92.67
2019-05-23T07:36:55.568Z,94.54
2019-05-23T07:37:55.534Z,97.24
2019-05-23T07:38:55.501Z,95.02
2019-05-23T07:39:55.470Z,94.15
2019-05-23T07:40:55.428Z,92.43
2019-05-23T07:41:55.398Z,91.94
2019-05-23T07:42:55.370Z,90.41
2019-05-23T07:43:55.329Z,90.50
2019-05-23T07:44:55.301Z,92.29
2019-05-23T07:45:55.267Z,92.86
2019-05-23T07:46:55.232Z,95.36
2019-05-23T07:47:55.198Z,95.07
2019-05-23T07:48:55.168Z,92.57
2019-05-23T07:49:55.135Z,89.11
2019-05-23T07:50:55.101Z,87.81
2019-05-23T07:51:55.093Z,86.08
2019-05-23T07:52:55.031Z,88.87
2019-05-23T07:53:55.001Z,87.48
2019-05-23T07:54:54.967Z,86.94
2019-05-23T07:55:54.931Z,84.83
2019-05-23T07:56:54.903Z,87.76
2019-05-23T07:57:54.896Z,85.02
2019-05-23T07:58:54.840Z,88.53
2019-05-23T07:59:54.806Z,89.06
2019-05-23T08:00:54.769Z,89.69
2019-05-23T08:01:54.735Z,84.67
2019-05-23T08:02:54.704Z,83.62
2019-05-23T08:03:54.680Z,87.81
2019-05-23T08:04:54.642Z,82.86
2019-05-23T08:06:03.259Z,83.44
2019-05-23T08:07:59.039Z,83.44
2019-05-23T08:08:58.963Z,90.41
2019-05-23T08:09:58.928Z,83.91
2019-05-23T08:10:58.938Z,85.83
2019-05-23T08:11:58.866Z,89.25
2019-05-23T08:12:58.833Z,88.96
2019-05-23T08:13:58.797Z,84.77
2019-05-23T08:14:58.764Z,83.86
2019-05-23T08:15:58.738Z,82.27
2019-05-23T08:16:58.706Z,82.31
2019-05-23T08:17:58.696Z,84.53
2019-05-23T08:18:58.639Z,86.35
2019-05-23T08:19:58.609Z,81.16
2019-05-23T08:20:58.570Z,79.85
2019-05-23T08:21:58.534Z,81.25
2019-05-23T08:22:58.503Z,83.72
2019-05-23T08:23:58.470Z,85.24
2019-05-23T08:24:58.444Z,82.83
2019-05-23T08:25:58.421Z,80.87
2019-05-23T08:26:58.454Z,86.60
2019-05-23T08:27:58.445Z,79.03
2019-05-23T08:29:24.083Z,71.24
2019-05-23T08:29:58.280Z,72.42
2019-05-23T08:30:58.247Z,73.67
2019-05-23T08:31:58.271Z,73.84
2019-05-23T08:32:58.184Z,76.59
2019-05-23T08:33:58.143Z,79.71
2019-05-23T08:34:58.122Z,79.43
2019-05-23T08:35:58.082Z,83.29
2019-05-23T08:36:58.052Z,80.87
2019-05-23T08:37:58.027Z,77.31
2019-05-23T08:38:57.999Z,75.19
2019-05-23T08:39:57.954Z,77.88
2019-05-23T08:40:57.918Z,76.06
2019-05-23T08:41:57.892Z,72.68
2019-05-23T08:42:57.857Z,74.80
2019-05-23T08:43:57.854Z,78.46
2019-05-23T08:44:57.789Z,85.35
2019-05-23T08:45:57.755Z,78.17
2019-05-23T08:46:57.725Z,75.54
2019-05-23T08:47:57.693Z,75.15
2019-05-23T08:48:57.662Z,77.75
2019-05-23T08:49:57.634Z,77.46
2019-05-23T08:50:57.604Z,76.98
2019-05-23T08:51:57.632Z,78.23
2019-05-23T08:52:57.534Z,78.19
2019-05-23T08:53:57.498Z,77.71
2019-05-23T08:54:57.468Z,77.04
2019-05-23T08:55:57.436Z,78.38
2019-05-23T08:56:57.414Z,78.86
2019-05-23T08:57:57.371Z,79.92
2019-05-23T08:58:57.333Z,78.77
2019-05-23T08:59:57.305Z,79.63
2019-05-23T09:00:57.281Z,79.05
2019-05-23T09:01:57.250Z,81.17
2019-05-23T09:02:58.635Z,80.30
2019-05-23T09:03:57.172Z,79.48
2019-05-23T09:05:04.215Z,80.54
2019-05-23T09:05:57.104Z,77.17
2019-05-23T09:06:57.072Z,76.69
2019-05-23T09:07:57.040Z,74.76
2019-05-23T09:08:57.010Z,75.86
2019-05-23T09:09:56.979Z,75.19
2019-05-23T09:10:56.947Z,76.63
2019-05-23T09:11:56.958Z,73.84
2019-05-23T09:12:56.877Z,73.46
2019-05-23T09:13:56.843Z,73.36
2019-05-23T09:14:56.815Z,71.34
2019-05-23T09:15:56.782Z,72.20
2019-05-23T09:16:56.748Z,73.84
2019-05-23T09:17:56.712Z,79.67
2019-05-23T09:18:56.680Z,73.03
2019-05-23T09:19:56.649Z,73.80
2019-05-23T09:20:56.619Z,75.63
2019-05-23T09:21:57.942Z,75.54
2019-05-23T09:22:56.555Z,76.78
2019-05-23T09:23:56.522Z,74.19
2019-05-23T09:24:56.487Z,73.22
2019-05-23T09:25:56.461Z,73.71
2019-05-23T09:26:56.420Z,73.80
2019-05-23T09:27:56.390Z,73.80
2019-05-23T09:28:56.372Z,73.13
2019-05-23T09:29:56.328Z,74.67
2019-05-23T09:30:56.295Z,77.94
2019-05-23T09:31:56.293Z,74.76
2019-05-23T09:32:56.229Z,72.74
2019-05-23T09:33:56.222Z,72.65
2019-05-23T09:34:56.165Z,73.32
2019-05-23T09:35:56.131Z,73.84
2019-05-23T09:50:38.374Z,71.41
2019-05-23T09:51:38.311Z,73.43
2019-05-23T09:52:38.277Z,67.46
2019-05-23T09:53:38.236Z,66.59
2019-05-23T09:54:38.202Z,69.09
2019-05-23T09:55:38.161Z,69.03
2019-05-23T09:56:38.124Z,71.54
2019-05-23T09:57:38.095Z,68.52
2019-05-23T09:58:38.058Z,65.14
2019-05-23T09:59:38.023Z,64.56
2019-05-23T10:00:37.992Z,66.04
2019-05-23T10:01:37.964Z,66.43
2019-05-23T10:02:37.921Z,64.69
2019-05-23T10:03:37.889Z,64.31
2019-05-23T10:04:37.864Z,66.33
2019-05-23T10:05:43.222Z,71.15
2019-05-23T10:06:37.788Z,67.68
2019-05-23T10:07:37.754Z,63.82
2019-05-23T10:08:37.728Z,61.99
2019-05-23T10:09:37.696Z,61.00
2019-05-23T10:10:37.659Z,62.57
2019-05-23T10:11:37.640Z,61.80
2019-05-23T10:12:37.603Z,63.15
2019-05-23T10:13:39.491Z,62.76
2019-05-23T10:14:37.526Z,62.38
2019-05-23T10:15:37.496Z,63.73
2019-05-23T10:16:37.460Z,63.15
2019-05-23T10:17:37.438Z,65.37
2019-05-23T10:18:37.402Z,65.75
2019-05-23T10:19:37.368Z,65.66
2019-05-23T10:20:37.339Z,66.08
2019-05-23T10:21:37.302Z,65.20
2019-05-23T10:22:37.272Z,62.99
2019-05-23T10:23:37.241Z,61.13
2019-05-23T10:24:37.212Z,61.99
2019-05-23T10:25:37.174Z,62.48
2019-05-23T10:26:37.143Z,63.82
2019-05-23T10:27:37.113Z,62.28
2019-05-23T10:28:37.085Z,62.02
2019-05-23T10:29:37.053Z,61.93
2019-05-23T10:30:37.028Z,60.64
2019-05-23T10:31:36.989Z,61.03
2019-05-23T10:32:36.958Z,59.58
2019-05-23T10:33:36.921Z,60.55
2019-05-23T10:34:36.890Z,61.93
2019-05-23T10:35:36.860Z,62.02
2019-05-23T10:36:36.830Z,63.28
2019-05-23T10:37:36.799Z,60.77
2019-05-23T10:38:36.790Z,58.36
2019-05-23T10:39:36.735Z,58.07
2019-05-23T10:40:36.700Z,57.10
2019-05-23T10:41:36.675Z,57.20
2019-05-23T10:42:36.640Z,56.26
2019-05-23T10:43:36.609Z,58.10
2019-05-23T10:44:36.580Z,56.24
2019-05-23T10:45:36.542Z,55.54
2019-05-23T10:46:36.522Z,56.24
2019-05-23T10:47:36.482Z,55.85
2019-05-23T10:48:36.449Z,58.17
2019-05-23T10:49:36.424Z,60.68
2019-05-23T10:50:44.812Z,60.77
2019-05-23T10:51:36.360Z,56.16
2019-05-23T10:52:36.328Z,54.02
2019-05-23T10:53:36.296Z,54.31
2019-05-23T10:54:36.262Z,54.21
2019-05-23T10:55:36.264Z,54.98
2019-05-23T10:56:36.203Z,59.61
2019-05-23T10:57:36.173Z,61.38
2019-05-23T10:58:36.188Z,60.61
2019-05-23T10:59:36.104Z,55.88
2019-05-23T11:00:36.074Z,55.01
2019-05-23T11:01:36.047Z,55.20
2019-05-23T11:02:36.015Z,54.05
2019-05-23T11:03:35.981Z,55.33
2019-05-23T11:04:35.954Z,57.06
2019-05-23T11:05:35.918Z,55.42
2019-05-23T11:06:35.889Z,56.77
2019-05-23T11:07:35.879Z,56.43
2019-05-23T11:08:35.827Z,57.93
2019-05-23T11:09:38.231Z,51.34
2019-05-23T11:10:35.765Z,50.76
2019-05-23T11:11:35.746Z,52.89
2019-05-23T11:12:35.706Z,52.11
2019-05-23T11:13:35.680Z,51.41
2019-05-23T11:14:35.643Z,51.61
2019-05-23T11:15:35.610Z,52.67
2019-05-23T11:16:35.583Z,52.76
2019-05-23T11:17:35.549Z,53.05
2019-05-23T11:18:35.516Z,54.69
2019-05-23T11:19:35.678Z,54.44
2019-05-23T11:20:36.209Z,56.18
2019-05-23T11:21:35.428Z,56.30
2019-05-23T11:22:35.394Z,56.30
2019-05-23T11:23:35.364Z,56.57
2019-05-23T11:24:35.331Z,58.59
2019-05-23T11:25:35.318Z,60.80
2019-05-23T11:26:35.265Z,60.52
2019-05-23T11:27:35.242Z,59.94
2019-05-23T11:28:35.234Z,57.92
2019-05-23T11:29:35.174Z,58.40
2019-05-23T11:30:35.140Z,60.23
2019-05-23T11:31:35.153Z,58.20
2019-05-23T11:32:35.084Z,57.24
2019-05-23T11:33:35.052Z,58.30
2019-05-23T11:34:35.022Z,58.30
2019-05-23T11:35:34.991Z,58.33
2019-05-23T11:36:36.689Z,58.20
2019-05-23T11:37:34.925Z,57.37
2019-05-23T11:38:34.893Z,58.49
2019-05-23T11:39:42.058Z,58.01
2019-05-23T11:40:34.834Z,56.27
2019-05-23T11:41:34.838Z,57.07
2019-05-23T11:42:34.773Z,59.45
2019-05-23T11:43:34.737Z,58.30
2019-05-23T11:44:34.711Z,59.39
2019-05-23T11:45:34.681Z,60.38
2019-05-23T11:46:34.663Z,60.31
2019-05-23T11:47:34.622Z,60.06
2019-05-23T11:48:34.590Z,60.73
2019-05-23T11:49:34.609Z,56.39
2019-05-23T11:50:34.518Z,57.45
2019-05-23T11:51:34.487Z,54.46
2019-05-23T11:52:34.459Z,55.90
2019-05-23T11:53:34.431Z,54.84
2019-05-23T11:54:34.401Z,52.11
2019-05-23T11:55:34.389Z,52.69
2019-05-23T11:56:34.348Z,52.53
2019-05-23T11:57:37.550Z,53.39
2019-05-23T11:58:34.273Z,54.75
2019-05-23T11:59:34.247Z,55.90
2019-05-23T12:00:34.269Z,56.48
2019-05-23T12:01:34.181Z,57.35
2019-05-23T12:02:34.147Z,57.06
2019-05-23T12:03:34.119Z,54.65
2019-05-23T12:04:34.092Z,55.62
2019-05-23T12:05:34.059Z,52.23
2019-05-23T12:06:51.513Z,53.11
2019-05-23T12:07:34.002Z,52.62
2019-05-23T12:08:33.981Z,51.56
2019-05-23T12:09:33.943Z,52.04
2019-05-23T12:10:33.902Z,55.42
2019-05-23T12:11:36.590Z,57.64
2019-05-23T12:12:33.843Z,59.19
2019-05-23T12:13:33.816Z,55.93
2019-05-23T12:14:33.785Z,54.87
2019-05-23T12:15:33.751Z,52.84
2019-05-23T12:16:33.721Z,52.26
2019-05-23T12:17:33.692Z,53.23
2019-05-23T12:18:33.669Z,53.03
2019-05-23T12:19:33.636Z,53.83
2019-05-23T12:20:33.599Z,53.35
2019-05-23T12:21:33.569Z,52.17
2019-05-23T12:22:33.547Z,52.67
2019-05-23T12:23:33.503Z,55.87
2019-05-23T12:24:35.548Z,55.45
2019-05-23T12:25:33.448Z,54.77
2019-05-23T12:26:33.422Z,55.19
2019-05-23T12:27:33.390Z,54.99
2019-05-23T12:28:33.359Z,54.90
2019-05-23T12:29:33.325Z,55.99
2019-05-23T12:30:33.294Z,56.76
2019-05-23T12:31:33.290Z,52.77
2019-05-23T12:32:33.245Z,50.84
2019-05-23T12:33:33.204Z,50.62
2019-05-23T12:34:33.173Z,52.36
2019-05-23T12:35:33.140Z,52.65
2019-05-23T12:36:33.114Z,51.68
2019-05-23T12:37:33.109Z,51.59
2019-05-23T12:38:33.058Z,50.81
2019-05-23T12:39:33.024Z,51.01
2019-05-23T12:40:33.000Z,52.07
2019-05-23T12:41:32.964Z,52.17
2019-05-23T12:42:32.928Z,50.71
2019-05-23T12:43:32.899Z,51.01
2019-05-23T12:44:32.873Z,51.49
2019-05-23T12:45:32.846Z,51.29
2019-05-23T12:46:32.813Z,50.62
2019-05-23T12:47:32.784Z,52.58
2019-05-23T12:48:32.787Z,53.74
2019-05-23T12:49:32.788Z,51.42
2019-05-23T12:50:32.734Z,50.84
2019-05-23T12:51:32.662Z,52.22
2019-05-23T12:52:32.634Z,53.47
2019-05-23T12:53:32.600Z,51.23
2019-05-23T12:54:32.568Z,50.65
2019-05-23T12:55:32.538Z,50.16
2019-05-23T12:56:32.508Z,52.22
2019-05-23T12:57:32.505Z,54.03
2019-05-23T12:58:32.449Z,56.09
2019-05-23T12:59:32.421Z,54.90
2019-05-23T13:00:32.396Z,54.22
2019-05-23T13:01:32.356Z,53.74
2019-05-23T13:02:32.326Z,54.22
2019-05-23T13:03:32.298Z,55.99
2019-05-23T13:04:32.267Z,56.67
2019-05-23T13:05:32.235Z,52.99
2019-05-23T13:06:32.202Z,53.67
2019-05-23T13:07:36.338Z,51.15
2019-05-23T13:08:32.146Z,50.28
2019-05-23T13:09:32.118Z,49.60
2019-05-23T13:10:32.092Z,50.84
2019-05-23T13:11:32.059Z,50.74
2019-05-23T13:12:32.033Z,49.39
2019-05-23T13:13:31.995Z,50.16
2019-05-23T13:14:31.962Z,50.55
2019-05-23T13:15:31.931Z,51.51
2019-05-23T13:16:31.906Z,52.51
2019-05-23T13:17:31.875Z,51.06
2019-05-23T13:18:31.847Z,50.86
2019-05-23T13:19:31.819Z,52.89
2019-05-23T13:20:31.784Z,54.53
2019-05-23T13:21:31.756Z,55.02
2019-05-23T13:22:31.752Z,52.24
2019-05-23T13:23:31.738Z,53.21